sensor_id;sensor_type;location;lat;lon;timestamp;P1;durP1;ratioP1;P2;durP2;ratioP2
65863;SDS011;52639;51.180;20.460;2023-07-02T00:02:28;71.88;;;32.05;;
65863;SDS011;52639;51.180;20.460;2023-07-02T00:06:31;73.18;;;34.05;;
65863;SDS011;52639;51.180;20.460;2023-07-02T00:10:41;71.22;;;31.17;;
65863;SDS011;52639;51.180;20.460;2023-07-02T00:14:44;79.85;;;32.97;;
65863;SDS011;52639;51.180;20.460;2023-07-02T00:18:48;79.45;;;34.45;;
65863;SDS011;52639;51.180;20.460;2023-07-02T00:22:53;77.25;;;34.30;;
65863;SDS011;52639;51.180;20.460;2023-07-02T00:26:57;76.68;;;34.80;;
65863;SDS011;52639;51.180;20.460;2023-07-02T00:30:59;73.22;;;33.83;;
65863;SDS011;52639;51.180;20.460;2023-07-02T00:35:05;78.10;;;35.30;;
65863;SDS011;52639;51.180;20.460;2023-07-02T00:39:08;68.95;;;31.08;;
65863;SDS011;52639;51.180;20.460;2023-07-02T00:43:12;77.22;;;33.83;;
65863;SDS011;52639;51.180;20.460;2023-07-02T00:47:15;72.28;;;32.47;;
65863;SDS011;52639;51.180;20.460;2023-07-02T00:51:20;75.63;;;34.47;;
65863;SDS011;52639;51.180;20.460;2023-07-02T00:55:24;83.72;;;36.20;;
65863;SDS011;52639;51.180;20.460;2023-07-02T00:59:27;83.03;;;34.03;;
65863;SDS011;52639;51.180;20.460;2023-07-02T01:03:30;87.80;;;34.55;;
65863;SDS011;52639;51.180;20.460;2023-07-02T01:07:35;86.95;;;34.95;;
65863;SDS011;52639;51.180;20.460;2023-07-02T01:11:38;94.68;;;36.70;;
65863;SDS011;52639;51.180;20.460;2023-07-02T01:15:47;90.03;;;35.80;;
65863;SDS011;52639;51.180;20.460;2023-07-02T01:19:53;101.78;;;37.80;;
65863;SDS011;52639;51.180;20.460;2023-07-02T01:23:59;107.13;;;38.50;;
65863;SDS011;52639;51.180;20.460;2023-07-02T01:28:02;98.38;;;38.00;;
65863;SDS011;52639;51.180;20.460;2023-07-02T01:32:05;105.75;;;39.33;;
65863;SDS011;52639;51.180;20.460;2023-07-02T01:36:10;103.93;;;37.90;;
65863;SDS011;52639;51.180;20.460;2023-07-02T01:40:13;113.95;;;39.63;;
65863;SDS011;52639;51.180;20.460;2023-07-02T01:44:16;87.53;;;34.20;;
65863;SDS011;52639;51.180;20.460;2023-07-02T01:48:19;97.15;;;36.40;;
65863;SDS011;52639;51.180;20.460;2023-07-02T01:52:24;94.40;;;36.30;;
65863;SDS011;52639;51.180;20.460;2023-07-02T01:56:26;96.22;;;37.38;;
65863;SDS011;52639;51.180;20.460;2023-07-02T02:00:29;97.50;;;37.90;;
65863;SDS011;52639;51.180;20.460;2023-07-02T02:04:32;110.68;;;38.85;;
65863;SDS011;52639;51.180;20.460;2023-07-02T02:08:37;95.80;;;37.22;;
65863;SDS011;52639;51.180;20.460;2023-07-02T02:12:39;90.53;;;36.33;;
65863;SDS011;52639;51.180;20.460;2023-07-02T02:16:43;84.03;;;35.20;;
65863;SDS011;52639;51.180;20.460;2023-07-02T02:20:47;87.15;;;35.22;;
65863;SDS011;52639;51.180;20.460;2023-07-02T02:24:52;91.05;;;36.20;;
65863;SDS011;52639;51.180;20.460;2023-07-02T02:28:54;87.20;;;36.47;;
65863;SDS011;52639;51.180;20.460;2023-07-02T02:32:57;77.88;;;33.58;;
65863;SDS011;52639;51.180;20.460;2023-07-02T02:37:00;69.82;;;32.38;;
65863;SDS011;52639;51.180;20.460;2023-07-02T02:41:04;71.72;;;34.95;;
65863;SDS011;52639;51.180;20.460;2023-07-02T02:45:09;68.30;;;33.40;;
65863;SDS011;52639;51.180;20.460;2023-07-02T02:49:11;69.63;;;33.08;;
65863;SDS011;52639;51.180;20.460;2023-07-02T02:53:14;63.55;;;31.30;;
65863;SDS011;52639;51.180;20.460;2023-07-02T02:57:19;60.80;;;30.95;;
65863;SDS011;52639;51.180;20.460;2023-07-02T03:01:22;56.90;;;30.83;;
65863;SDS011;52639;51.180;20.460;2023-07-02T03:05:24;51.75;;;30.77;;
65863;SDS011;52639;51.180;20.460;2023-07-02T03:09:28;51.35;;;27.80;;
65863;SDS011;52639;51.180;20.460;2023-07-02T03:13:32;52.53;;;30.88;;
65863;SDS011;52639;51.180;20.460;2023-07-02T03:17:36;47.85;;;28.08;;
65863;SDS011;52639;51.180;20.460;2023-07-02T03:21:40;45.08;;;27.73;;
65863;SDS011;52639;51.180;20.460;2023-07-02T03:25:44;54.83;;;35.80;;
65863;SDS011;52639;51.180;20.460;2023-07-02T03:29:48;50.17;;;35.05;;
65863;SDS011;52639;51.180;20.460;2023-07-02T03:33:51;59.60;;;39.90;;
65863;SDS011;52639;51.180;20.460;2023-07-02T03:37:54;42.10;;;28.83;;
65863;SDS011;52639;51.180;20.460;2023-07-02T03:41:58;36.67;;;26.17;;
65863;SDS011;52639;51.180;20.460;2023-07-02T03:46:02;45.33;;;30.48;;
65863;SDS011;52639;51.180;20.460;2023-07-02T03:50:06;41.53;;;27.15;;
65863;SDS011;52639;51.180;20.460;2023-07-02T03:54:09;45.25;;;27.20;;
65863;SDS011;52639;51.180;20.460;2023-07-02T03:58:12;43.72;;;26.52;;
65863;SDS011;52639;51.180;20.460;2023-07-02T04:02:17;30.63;;;21.40;;
65863;SDS011;52639;51.180;20.460;2023-07-02T04:06:20;47.38;;;25.70;;
65863;SDS011;52639;51.180;20.460;2023-07-02T04:10:23;30.27;;;22.55;;
65863;SDS011;52639;51.180;20.460;2023-07-02T04:14:25;36.78;;;23.13;;
65863;SDS011;52639;51.180;20.460;2023-07-02T04:18:30;43.97;;;26.27;;
65863;SDS011;52639;51.180;20.460;2023-07-02T04:22:33;33.08;;;20.25;;
65863;SDS011;52639;51.180;20.460;2023-07-02T04:26:36;29.88;;;18.42;;
65863;SDS011;52639;51.180;20.460;2023-07-02T04:30:39;27.88;;;18.17;;
65863;SDS011;52639;51.180;20.460;2023-07-02T04:34:44;24.17;;;17.05;;
65863;SDS011;52639;51.180;20.460;2023-07-02T04:38:47;26.35;;;16.55;;
65863;SDS011;52639;51.180;20.460;2023-07-02T04:42:50;25.75;;;16.70;;
65863;SDS011;52639;51.180;20.460;2023-07-02T04:46:58;23.33;;;15.13;;
65863;SDS011;52639;51.180;20.460;2023-07-02T04:51:04;24.90;;;15.70;;
65863;SDS011;52639;51.180;20.460;2023-07-02T04:55:07;21.42;;;14.23;;
65863;SDS011;52639;51.180;20.460;2023-07-02T04:59:10;20.63;;;14.50;;
65863;SDS011;52639;51.180;20.460;2023-07-02T05:03:13;25.25;;;15.43;;
65863;SDS011;52639;51.180;20.460;2023-07-02T05:07:17;20.50;;;13.93;;
65863;SDS011;52639;51.180;20.460;2023-07-02T05:11:20;19.05;;;13.50;;
65863;SDS011;52639;51.180;20.460;2023-07-02T05:15:23;23.02;;;13.70;;
65863;SDS011;52639;51.180;20.460;2023-07-02T05:19:27;14.77;;;11.55;;
65863;SDS011;52639;51.180;20.460;2023-07-02T05:23:34;20.02;;;13.07;;
65863;SDS011;52639;51.180;20.460;2023-07-02T05:27:37;17.05;;;11.90;;
65863;SDS011;52639;51.180;20.460;2023-07-02T05:31:40;15.95;;;11.00;;
65863;SDS011;52639;51.180;20.460;2023-07-02T05:35:43;17.60;;;9.90;;
65863;SDS011;52639;51.180;20.460;2023-07-02T05:39:48;16.55;;;11.15;;
65863;SDS011;52639;51.180;20.460;2023-07-02T05:43:51;15.23;;;10.95;;
65863;SDS011;52639;51.180;20.460;2023-07-02T05:47:54;19.02;;;11.10;;
65863;SDS011;52639;51.180;20.460;2023-07-02T05:51:57;13.93;;;11.02;;
65863;SDS011;52639;51.180;20.460;2023-07-02T05:56:02;17.95;;;11.43;;
65863;SDS011;52639;51.180;20.460;2023-07-02T06:00:06;16.55;;;11.48;;
65863;SDS011;52639;51.180;20.460;2023-07-02T06:04:10;16.75;;;11.27;;
65863;SDS011;52639;51.180;20.460;2023-07-02T06:08:14;14.07;;;10.73;;
65863;SDS011;52639;51.180;20.460;2023-07-02T06:12:19;17.40;;;11.30;;
65863;SDS011;52639;51.180;20.460;2023-07-02T06:16:25;17.15;;;11.30;;
65863;SDS011;52639;51.180;20.460;2023-07-02T06:20:30;17.08;;;11.25;;
65863;SDS011;52639;51.180;20.460;2023-07-02T06:24:36;16.38;;;10.77;;
65863;SDS011;52639;51.180;20.460;2023-07-02T06:28:41;17.48;;;9.85;;
65863;SDS011;52639;51.180;20.460;2023-07-02T06:32:44;18.42;;;8.82;;
65863;SDS011;52639;51.180;20.460;2023-07-02T06:36:47;16.48;;;9.90;;
65863;SDS011;52639;51.180;20.460;2023-07-02T06:40:52;11.77;;;8.57;;
65863;SDS011;52639;51.180;20.460;2023-07-02T06:44:57;14.48;;;8.68;;
65863;SDS011;52639;51.180;20.460;2023-07-02T06:49:07;13.13;;;8.18;;
65863;SDS011;52639;51.180;20.460;2023-07-02T06:53:48;11.10;;;8.05;;
65863;SDS011;52639;51.180;20.460;2023-07-02T07:00:34;14.77;;;7.38;;
65863;SDS011;52639;51.180;20.460;2023-07-02T07:02:54;11.68;;;7.43;;
65863;SDS011;52639;51.180;20.460;2023-07-02T07:06:58;11.48;;;7.57;;
65863;SDS011;52639;51.180;20.460;2023-07-02T07:11:00;13.10;;;7.45;;
65863;SDS011;52639;51.180;20.460;2023-07-02T07:15:04;13.00;;;7.03;;
65863;SDS011;52639;51.180;20.460;2023-07-02T07:19:14;13.13;;;6.35;;
65863;SDS011;52639;51.180;20.460;2023-07-02T07:23:19;8.77;;;6.70;;
65863;SDS011;52639;51.180;20.460;2023-07-02T07:27:23;10.15;;;6.35;;
65863;SDS011;52639;51.180;20.460;2023-07-02T07:31:29;10.38;;;6.88;;
65863;SDS011;52639;51.180;20.460;2023-07-02T07:35:34;9.55;;;6.40;;
65863;SDS011;52639;51.180;20.460;2023-07-02T07:39:37;9.13;;;6.18;;
65863;SDS011;52639;51.180;20.460;2023-07-02T07:43:41;10.40;;;6.47;;
65863;SDS011;52639;51.180;20.460;2023-07-02T07:47:44;9.90;;;5.43;;
65863;SDS011;52639;51.180;20.460;2023-07-02T07:51:49;9.50;;;5.80;;
65863;SDS011;52639;51.180;20.460;2023-07-02T07:55:53;13.50;;;6.53;;
65863;SDS011;52639;51.180;20.460;2023-07-02T07:59:59;12.48;;;6.15;;
65863;SDS011;52639;51.180;20.460;2023-07-02T08:04:03;9.48;;;6.30;;
65863;SDS011;52639;51.180;20.460;2023-07-02T08:08:08;10.93;;;6.18;;
65863;SDS011;52639;51.180;20.460;2023-07-02T08:12:24;11.10;;;6.60;;
65863;SDS011;52639;51.180;20.460;2023-07-02T08:17:01;9.10;;;5.78;;
65863;SDS011;52639;51.180;20.460;2023-07-02T08:21:07;9.93;;;5.60;;
65863;SDS011;52639;51.180;20.460;2023-07-02T08:25:12;9.18;;;5.50;;
65863;SDS011;52639;51.180;20.460;2023-07-02T08:29:18;10.05;;;6.22;;
65863;SDS011;52639;51.180;20.460;2023-07-02T08:33:23;8.23;;;5.15;;
65863;SDS011;52639;51.180;20.460;2023-07-02T08:37:26;10.13;;;6.78;;
65863;SDS011;52639;51.180;20.460;2023-07-02T08:41:44;11.57;;;6.90;;
65863;SDS011;52639;51.180;20.460;2023-07-02T08:45:48;8.55;;;4.95;;
65863;SDS011;52639;51.180;20.460;2023-07-02T08:49:54;11.55;;;6.43;;
65863;SDS011;52639;51.180;20.460;2023-07-02T08:54:01;6.43;;;3.70;;
65863;SDS011;52639;51.180;20.460;2023-07-02T08:58:07;5.95;;;3.85;;
65863;SDS011;52639;51.180;20.460;2023-07-02T09:02:11;8.63;;;3.58;;
65863;SDS011;52639;51.180;20.460;2023-07-02T09:11:06;7.72;;;4.82;;
65863;SDS011;52639;51.180;20.460;2023-07-02T09:15:11;6.60;;;4.47;;
65863;SDS011;52639;51.180;20.460;2023-07-02T09:19:17;8.20;;;5.03;;
65863;SDS011;52639;51.180;20.460;2023-07-02T09:23:20;6.22;;;3.65;;
65863;SDS011;52639;51.180;20.460;2023-07-02T09:27:33;5.60;;;2.92;;
65863;SDS011;52639;51.180;20.460;2023-07-02T09:31:45;5.25;;;3.25;;
65863;SDS011;52639;51.180;20.460;2023-07-02T09:35:53;5.07;;;3.03;;
65863;SDS011;52639;51.180;20.460;2023-07-02T09:39:59;5.85;;;3.88;;
65863;SDS011;52639;51.180;20.460;2023-07-02T09:44:06;4.22;;;2.88;;
65863;SDS011;52639;51.180;20.460;2023-07-02T09:48:14;13.45;;;8.63;;
65863;SDS011;52639;51.180;20.460;2023-07-02T09:52:23;8.93;;;5.75;;
65863;SDS011;52639;51.180;20.460;2023-07-02T09:56:30;9.02;;;4.88;;
65863;SDS011;52639;51.180;20.460;2023-07-02T10:00:40;5.35;;;3.70;;
65863;SDS011;52639;51.180;20.460;2023-07-02T10:04:46;7.63;;;3.60;;
65863;SDS011;52639;51.180;20.460;2023-07-02T10:08:55;12.02;;;7.60;;
65863;SDS011;52639;51.180;20.460;2023-07-02T10:12:59;11.43;;;8.45;;
65863;SDS011;52639;51.180;20.460;2023-07-02T10:17:05;5.78;;;4.35;;
65863;SDS011;52639;51.180;20.460;2023-07-02T10:21:16;13.07;;;9.48;;
65863;SDS011;52639;51.180;20.460;2023-07-02T10:25:24;17.23;;;12.50;;
65863;SDS011;52639;51.180;20.460;2023-07-02T10:29:29;5.80;;;3.92;;
65863;SDS011;52639;51.180;20.460;2023-07-02T10:33:36;8.38;;;6.22;;
65863;SDS011;52639;51.180;20.460;2023-07-02T10:37:47;6.32;;;3.90;;
65863;SDS011;52639;51.180;20.460;2023-07-02T10:42:02;6.35;;;3.85;;
65863;SDS011;52639;51.180;20.460;2023-07-02T10:46:07;4.13;;;3.00;;
65863;SDS011;52639;51.180;20.460;2023-07-02T10:50:21;4.15;;;3.00;;
65863;SDS011;52639;51.180;20.460;2023-07-02T10:54:37;4.28;;;2.70;;
65863;SDS011;52639;51.180;20.460;2023-07-02T10:58:42;11.63;;;8.27;;
65863;SDS011;52639;51.180;20.460;2023-07-02T11:02:45;4.45;;;3.60;;
65863;SDS011;52639;51.180;20.460;2023-07-02T11:06:48;2.95;;;2.20;;
65863;SDS011;52639;51.180;20.460;2023-07-02T11:11:05;4.28;;;2.33;;
65863;SDS011;52639;51.180;20.460;2023-07-02T11:15:13;3.70;;;3.10;;
65863;SDS011;52639;51.180;20.460;2023-07-02T11:19:18;6.65;;;5.65;;
65863;SDS011;52639;51.180;20.460;2023-07-02T11:23:22;6.30;;;3.33;;
65863;SDS011;52639;51.180;20.460;2023-07-02T11:27:29;2.40;;;1.90;;
65863;SDS011;52639;51.180;20.460;2023-07-02T11:31:32;12.98;;;8.55;;
65863;SDS011;52639;51.180;20.460;2023-07-02T11:35:34;4.25;;;2.35;;
65863;SDS011;52639;51.180;20.460;2023-07-02T11:39:38;3.15;;;2.15;;
65863;SDS011;52639;51.180;20.460;2023-07-02T11:43:42;5.57;;;2.83;;
65863;SDS011;52639;51.180;20.460;2023-07-02T11:47:45;4.90;;;3.67;;
65863;SDS011;52639;51.180;20.460;2023-07-02T11:51:49;4.55;;;2.95;;
65863;SDS011;52639;51.180;20.460;2023-07-02T11:55:53;13.05;;;10.50;;
65863;SDS011;52639;51.180;20.460;2023-07-02T11:59:57;4.00;;;2.30;;
65863;SDS011;52639;51.180;20.460;2023-07-02T12:04:01;4.75;;;2.53;;
65863;SDS011;52639;51.180;20.460;2023-07-02T12:08:06;5.95;;;3.55;;
65863;SDS011;52639;51.180;20.460;2023-07-02T12:12:10;6.50;;;3.30;;
65863;SDS011;52639;51.180;20.460;2023-07-02T12:16:21;2.20;;;1.83;;
65863;SDS011;52639;51.180;20.460;2023-07-02T12:20:28;2.65;;;1.80;;
65863;SDS011;52639;51.180;20.460;2023-07-02T12:24:35;4.88;;;2.20;;
65863;SDS011;52639;51.180;20.460;2023-07-02T12:28:39;4.03;;;2.15;;
65863;SDS011;52639;51.180;20.460;2023-07-02T12:32:44;5.28;;;2.50;;
65863;SDS011;52639;51.180;20.460;2023-07-02T12:36:47;4.22;;;2.60;;
65863;SDS011;52639;51.180;20.460;2023-07-02T12:41:08;6.13;;;4.68;;
65863;SDS011;52639;51.180;20.460;2023-07-02T12:45:11;2.83;;;2.00;;
65863;SDS011;52639;51.180;20.460;2023-07-02T12:49:17;4.13;;;2.17;;
65863;SDS011;52639;51.180;20.460;2023-07-02T12:53:20;2.05;;;1.70;;
65863;SDS011;52639;51.180;20.460;2023-07-02T12:57:24;3.60;;;2.25;;
65863;SDS011;52639;51.180;20.460;2023-07-02T13:01:43;3.42;;;2.10;;
65863;SDS011;52639;51.180;20.460;2023-07-02T13:05:50;2.67;;;1.73;;
65863;SDS011;52639;51.180;20.460;2023-07-02T13:09:55;2.95;;;1.70;;
65863;SDS011;52639;51.180;20.460;2023-07-02T13:14:02;3.35;;;1.92;;
65863;SDS011;52639;51.180;20.460;2023-07-02T13:18:08;1.90;;;1.80;;
65863;SDS011;52639;51.180;20.460;2023-07-02T13:22:13;2.55;;;1.70;;
65863;SDS011;52639;51.180;20.460;2023-07-02T13:26:18;2.85;;;1.80;;
65863;SDS011;52639;51.180;20.460;2023-07-02T13:30:22;3.00;;;1.88;;
65863;SDS011;52639;51.180;20.460;2023-07-02T13:34:28;3.65;;;2.00;;
65863;SDS011;52639;51.180;20.460;2023-07-02T13:38:33;7.15;;;2.80;;
65863;SDS011;52639;51.180;20.460;2023-07-02T13:42:37;9.95;;;3.70;;
65863;SDS011;52639;51.180;20.460;2023-07-02T13:46:43;10.50;;;3.78;;
65863;SDS011;52639;51.180;20.460;2023-07-02T13:50:48;10.45;;;4.35;;
65863;SDS011;52639;51.180;20.460;2023-07-02T13:54:53;11.02;;;4.35;;
65863;SDS011;52639;51.180;20.460;2023-07-02T13:59:02;10.40;;;3.33;;
65863;SDS011;52639;51.180;20.460;2023-07-02T14:03:07;8.17;;;3.47;;
65863;SDS011;52639;51.180;20.460;2023-07-02T14:07:11;4.10;;;2.50;;
65863;SDS011;52639;51.180;20.460;2023-07-02T14:11:15;4.50;;;2.60;;
65863;SDS011;52639;51.180;20.460;2023-07-02T14:15:21;3.08;;;2.30;;
65863;SDS011;52639;51.180;20.460;2023-07-02T14:19:26;2.67;;;1.80;;
65863;SDS011;52639;51.180;20.460;2023-07-02T14:23:30;5.10;;;2.00;;
65863;SDS011;52639;51.180;20.460;2023-07-02T14:27:34;5.85;;;1.90;;
65863;SDS011;52639;51.180;20.460;2023-07-02T14:31:45;2.95;;;1.80;;
65863;SDS011;52639;51.180;20.460;2023-07-02T14:35:49;3.42;;;2.00;;
65863;SDS011;52639;51.180;20.460;2023-07-02T14:39:56;2.17;;;1.70;;
65863;SDS011;52639;51.180;20.460;2023-07-02T14:44:02;2.50;;;1.77;;
65863;SDS011;52639;51.180;20.460;2023-07-02T14:48:09;1.67;;;1.52;;
65863;SDS011;52639;51.180;20.460;2023-07-02T14:52:13;4.57;;;1.60;;
65863;SDS011;52639;51.180;20.460;2023-07-02T14:56:16;2.60;;;1.70;;
65863;SDS011;52639;51.180;20.460;2023-07-02T15:00:23;2.08;;;1.80;;
65863;SDS011;52639;51.180;20.460;2023-07-02T15:04:32;2.70;;;1.60;;
65863;SDS011;52639;51.180;20.460;2023-07-02T15:08:42;3.08;;;1.70;;
65863;SDS011;52639;51.180;20.460;2023-07-02T15:12:52;3.25;;;1.80;;
65863;SDS011;52639;51.180;20.460;2023-07-02T15:16:59;2.33;;;1.70;;
65863;SDS011;52639;51.180;20.460;2023-07-02T15:21:27;3.13;;;1.70;;
65863;SDS011;52639;51.180;20.460;2023-07-02T15:25:31;2.05;;;1.70;;
65863;SDS011;52639;51.180;20.460;2023-07-02T15:29:34;2.00;;;1.80;;
65863;SDS011;52639;51.180;20.460;2023-07-02T15:33:40;3.40;;;1.70;;
65863;SDS011;52639;51.180;20.460;2023-07-02T15:37:46;4.00;;;2.38;;
65863;SDS011;52639;51.180;20.460;2023-07-02T15:41:50;3.75;;;2.03;;
65863;SDS011;52639;51.180;20.460;2023-07-02T15:45:55;2.78;;;2.10;;
65863;SDS011;52639;51.180;20.460;2023-07-02T15:50:00;6.20;;;2.20;;
65863;SDS011;52639;51.180;20.460;2023-07-02T15:54:05;2.55;;;2.22;;
65863;SDS011;52639;51.180;20.460;2023-07-02T15:58:10;5.07;;;2.13;;
65863;SDS011;52639;51.180;20.460;2023-07-02T16:02:15;3.65;;;2.20;;
65863;SDS011;52639;51.180;20.460;2023-07-02T16:06:18;3.53;;;1.98;;
65863;SDS011;52639;51.180;20.460;2023-07-02T16:10:22;7.80;;;3.53;;
65863;SDS011;52639;51.180;20.460;2023-07-02T16:14:25;7.22;;;3.00;;
65863;SDS011;52639;51.180;20.460;2023-07-02T16:18:28;12.68;;;3.65;;
65863;SDS011;52639;51.180;20.460;2023-07-02T16:22:32;10.65;;;3.08;;
65863;SDS011;52639;51.180;20.460;2023-07-02T16:26:36;11.90;;;2.72;;
65863;SDS011;52639;51.180;20.460;2023-07-02T16:30:40;6.45;;;2.63;;
65863;SDS011;52639;51.180;20.460;2023-07-02T16:34:43;3.45;;;2.40;;
65863;SDS011;52639;51.180;20.460;2023-07-02T16:38:47;10.07;;;2.78;;
65863;SDS011;52639;51.180;20.460;2023-07-02T16:42:53;7.13;;;3.17;;
65863;SDS011;52639;51.180;20.460;2023-07-02T16:46:56;6.63;;;3.00;;
65863;SDS011;52639;51.180;20.460;2023-07-02T16:51:00;8.60;;;3.70;;
65863;SDS011;52639;51.180;20.460;2023-07-02T16:55:05;6.78;;;2.55;;
65863;SDS011;52639;51.180;20.460;2023-07-02T16:59:20;6.85;;;2.70;;
65863;SDS011;52639;51.180;20.460;2023-07-02T17:03:25;5.22;;;2.70;;
65863;SDS011;52639;51.180;20.460;2023-07-02T17:07:34;4.28;;;2.47;;
65863;SDS011;52639;51.180;20.460;2023-07-02T17:11:38;4.43;;;2.60;;
65863;SDS011;52639;51.180;20.460;2023-07-02T17:15:44;6.18;;;3.13;;
65863;SDS011;52639;51.180;20.460;2023-07-02T17:19:47;4.72;;;2.80;;
65863;SDS011;52639;51.180;20.460;2023-07-02T17:23:52;3.70;;;2.72;;
65863;SDS011;52639;51.180;20.460;2023-07-02T17:27:56;4.85;;;2.83;;
65863;SDS011;52639;51.180;20.460;2023-07-02T17:32:02;3.85;;;2.90;;
65863;SDS011;52639;51.180;20.460;2023-07-02T17:36:07;4.97;;;3.28;;
65863;SDS011;52639;51.180;20.460;2023-07-02T17:40:11;4.32;;;3.10;;
65863;SDS011;52639;51.180;20.460;2023-07-02T17:44:20;6.25;;;2.70;;
65863;SDS011;52639;51.180;20.460;2023-07-02T17:48:32;4.28;;;3.15;;
65863;SDS011;52639;51.180;20.460;2023-07-02T17:52:50;5.43;;;2.90;;
65863;SDS011;52639;51.180;20.460;2023-07-02T17:56:53;3.30;;;2.60;;
65863;SDS011;52639;51.180;20.460;2023-07-02T18:00:58;4.57;;;3.20;;
65863;SDS011;52639;51.180;20.460;2023-07-02T18:05:05;5.00;;;3.15;;
65863;SDS011;52639;51.180;20.460;2023-07-02T18:09:09;9.70;;;5.28;;
65863;SDS011;52639;51.180;20.460;2023-07-02T18:13:14;10.43;;;3.88;;
65863;SDS011;52639;51.180;20.460;2023-07-02T18:17:23;7.45;;;3.55;;
65863;SDS011;52639;51.180;20.460;2023-07-02T18:21:28;8.95;;;4.40;;
65863;SDS011;52639;51.180;20.460;2023-07-02T18:25:33;5.22;;;3.42;;
65863;SDS011;52639;51.180;20.460;2023-07-02T18:29:37;5.97;;;3.50;;
65863;SDS011;52639;51.180;20.460;2023-07-02T18:33:47;4.47;;;3.40;;
65863;SDS011;52639;51.180;20.460;2023-07-02T18:37:53;6.05;;;3.80;;
65863;SDS011;52639;51.180;20.460;2023-07-02T18:41:59;7.57;;;4.43;;
65863;SDS011;52639;51.180;20.460;2023-07-02T18:46:05;6.50;;;4.75;;
65863;SDS011;52639;51.180;20.460;2023-07-02T18:50:12;9.55;;;6.65;;
65863;SDS011;52639;51.180;20.460;2023-07-02T18:54:18;6.75;;;5.57;;
65863;SDS011;52639;51.180;20.460;2023-07-02T18:58:22;7.00;;;4.97;;
65863;SDS011;52639;51.180;20.460;2023-07-02T19:02:32;7.20;;;5.07;;
65863;SDS011;52639;51.180;20.460;2023-07-02T19:06:36;6.70;;;5.00;;
65863;SDS011;52639;51.180;20.460;2023-07-02T19:10:45;6.90;;;4.65;;
65863;SDS011;52639;51.180;20.460;2023-07-02T19:15:03;6.57;;;5.63;;
65863;SDS011;52639;51.180;20.460;2023-07-02T19:19:09;14.00;;;5.93;;
65863;SDS011;52639;51.180;20.460;2023-07-02T19:23:14;11.23;;;6.60;;
65863;SDS011;52639;51.180;20.460;2023-07-02T19:27:21;8.02;;;6.47;;
65863;SDS011;52639;51.180;20.460;2023-07-02T19:31:29;9.70;;;7.57;;
65863;SDS011;52639;51.180;20.460;2023-07-02T19:35:44;10.73;;;8.18;;
65863;SDS011;52639;51.180;20.460;2023-07-02T19:39:48;12.35;;;8.13;;
65863;SDS011;52639;51.180;20.460;2023-07-02T19:43:57;11.80;;;8.18;;
65863;SDS011;52639;51.180;20.460;2023-07-02T19:48:04;9.50;;;7.70;;
65863;SDS011;52639;51.180;20.460;2023-07-02T19:52:11;11.60;;;7.65;;
65863;SDS011;52639;51.180;20.460;2023-07-02T19:56:15;10.65;;;7.63;;
65863;SDS011;52639;51.180;20.460;2023-07-02T20:00:21;10.63;;;6.70;;
65863;SDS011;52639;51.180;20.460;2023-07-02T20:04:25;8.00;;;6.65;;
65863;SDS011;52639;51.180;20.460;2023-07-02T20:08:30;11.13;;;7.63;;
65863;SDS011;52639;51.180;20.460;2023-07-02T20:12:36;10.23;;;8.07;;
65863;SDS011;52639;51.180;20.460;2023-07-02T20:16:42;11.57;;;7.68;;
65863;SDS011;52639;51.180;20.460;2023-07-02T20:20:46;10.02;;;7.57;;
65863;SDS011;52639;51.180;20.460;2023-07-02T20:24:53;9.73;;;7.13;;
65863;SDS011;52639;51.180;20.460;2023-07-02T20:28:58;10.00;;;8.02;;
65863;SDS011;52639;51.180;20.460;2023-07-02T20:33:04;11.25;;;7.88;;
65863;SDS011;52639;51.180;20.460;2023-07-02T20:37:09;10.40;;;7.90;;
65863;SDS011;52639;51.180;20.460;2023-07-02T20:41:15;9.52;;;7.40;;
65863;SDS011;52639;51.180;20.460;2023-07-02T20:45:19;9.50;;;7.30;;
65863;SDS011;52639;51.180;20.460;2023-07-02T20:49:26;12.00;;;7.72;;
65863;SDS011;52639;51.180;20.460;2023-07-02T20:53:30;9.77;;;7.05;;
65863;SDS011;52639;51.180;20.460;2023-07-02T20:57:34;11.25;;;7.72;;
65863;SDS011;52639;51.180;20.460;2023-07-02T21:01:37;10.60;;;7.18;;
65863;SDS011;52639;51.180;20.460;2023-07-02T21:05:41;10.05;;;7.32;;
65863;SDS011;52639;51.180;20.460;2023-07-02T21:09:44;10.93;;;7.35;;
65863;SDS011;52639;51.180;20.460;2023-07-02T21:13:48;10.63;;;7.55;;
65863;SDS011;52639;51.180;20.460;2023-07-02T21:17:50;11.77;;;7.25;;
65863;SDS011;52639;51.180;20.460;2023-07-02T21:21:55;10.45;;;7.82;;
65863;SDS011;52639;51.180;20.460;2023-07-02T21:25:58;11.50;;;7.65;;
65863;SDS011;52639;51.180;20.460;2023-07-02T21:30:04;12.90;;;8.20;;
65863;SDS011;52639;51.180;20.460;2023-07-02T21:34:07;10.90;;;7.85;;
65863;SDS011;52639;51.180;20.460;2023-07-02T21:38:12;16.52;;;8.52;;
65863;SDS011;52639;51.180;20.460;2023-07-02T21:42:15;11.30;;;8.55;;
65863;SDS011;52639;51.180;20.460;2023-07-02T21:46:18;18.05;;;10.73;;
65863;SDS011;52639;51.180;20.460;2023-07-02T21:50:21;16.42;;;9.82;;
65863;SDS011;52639;51.180;20.460;2023-07-02T21:54:25;15.63;;;10.80;;
65863;SDS011;52639;51.180;20.460;2023-07-02T21:58:28;15.50;;;9.88;;
65863;SDS011;52639;51.180;20.460;2023-07-02T22:02:31;16.95;;;9.52;;
65863;SDS011;52639;51.180;20.460;2023-07-02T22:06:34;16.88;;;10.25;;
65863;SDS011;52639;51.180;20.460;2023-07-02T22:10:39;16.75;;;10.32;;
65863;SDS011;52639;51.180;20.460;2023-07-02T22:14:42;20.92;;;10.98;;
65863;SDS011;52639;51.180;20.460;2023-07-02T22:18:44;18.48;;;11.27;;
65863;SDS011;52639;51.180;20.460;2023-07-02T22:22:47;16.30;;;10.95;;
65863;SDS011;52639;51.180;20.460;2023-07-02T22:26:52;14.38;;;9.80;;
65863;SDS011;52639;51.180;20.460;2023-07-02T22:30:55;15.57;;;10.10;;
65863;SDS011;52639;51.180;20.460;2023-07-02T22:34:58;18.55;;;9.90;;
65863;SDS011;52639;51.180;20.460;2023-07-02T22:39:01;15.25;;;9.98;;
65863;SDS011;52639;51.180;20.460;2023-07-02T22:43:05;16.48;;;9.55;;
65863;SDS011;52639;51.180;20.460;2023-07-02T22:47:08;19.45;;;9.82;;
65863;SDS011;52639;51.180;20.460;2023-07-02T22:51:11;15.18;;;10.18;;
65863;SDS011;52639;51.180;20.460;2023-07-02T22:55:14;20.42;;;11.50;;
65863;SDS011;52639;51.180;20.460;2023-07-02T22:59:18;15.13;;;10.05;;
65863;SDS011;52639;51.180;20.460;2023-07-02T23:03:21;14.68;;;9.20;;
65863;SDS011;52639;51.180;20.460;2023-07-02T23:07:24;15.02;;;9.95;;
65863;SDS011;52639;51.180;20.460;2023-07-02T23:11:27;19.52;;;10.70;;
65863;SDS011;52639;51.180;20.460;2023-07-02T23:15:31;16.48;;;10.25;;
65863;SDS011;52639;51.180;20.460;2023-07-02T23:19:34;16.20;;;9.70;;
65863;SDS011;52639;51.180;20.460;2023-07-02T23:23:37;16.30;;;9.80;;
65863;SDS011;52639;51.180;20.460;2023-07-02T23:27:43;14.60;;;9.27;;
65863;SDS011;52639;51.180;20.460;2023-07-02T23:31:49;13.45;;;9.07;;
65863;SDS011;52639;51.180;20.460;2023-07-02T23:35:57;20.02;;;10.35;;
65863;SDS011;52639;51.180;20.460;2023-07-02T23:40:00;18.67;;;11.23;;
65863;SDS011;52639;51.180;20.460;2023-07-02T23:44:05;19.83;;;12.02;;
65863;SDS011;52639;51.180;20.460;2023-07-02T23:48:09;19.98;;;11.80;;
65863;SDS011;52639;51.180;20.460;2023-07-02T23:52:12;14.32;;;9.07;;
65863;SDS011;52639;51.180;20.460;2023-07-02T23:56:15;14.75;;;9.32;;
